sensor_id;sensor_type;location;lat;lon;timestamp;P1;durP1;ratioP1;P2;durP2;ratioP2
40471;SDS011;26174;42.908;23.800;2024-02-16T00:00:07;31.38;;;15.82;;
40471;SDS011;26174;42.908;23.800;2024-02-16T00:02:33;32.78;;;15.82;;
40471;SDS011;26174;42.908;23.800;2024-02-16T00:04:58;34.80;;;16.08;;
40471;SDS011;26174;42.908;23.800;2024-02-16T00:07:24;37.25;;;15.77;;
40471;SDS011;26174;42.908;23.800;2024-02-16T00:09:50;37.20;;;16.67;;
40471;SDS011;26174;42.908;23.800;2024-02-16T00:12:16;27.73;;;15.65;;
40471;SDS011;26174;42.908;23.800;2024-02-16T00:14:42;34.92;;;17.60;;
40471;SDS011;26174;42.908;23.800;2024-02-16T00:17:07;37.85;;;16.65;;
40471;SDS011;26174;42.908;23.800;2024-02-16T00:19:35;42.10;;;17.77;;
40471;SDS011;26174;42.908;23.800;2024-02-16T00:22:01;48.97;;;18.38;;
40471;SDS011;26174;42.908;23.800;2024-02-16T00:24:27;41.67;;;18.77;;
40471;SDS011;26174;42.908;23.800;2024-02-16T00:26:53;38.08;;;18.13;;
40471;SDS011;26174;42.908;23.800;2024-02-16T00:29:18;37.28;;;18.55;;
40471;SDS011;26174;42.908;23.800;2024-02-16T00:31:44;44.58;;;20.27;;
40471;SDS011;26174;42.908;23.800;2024-02-16T00:34:10;37.70;;;18.90;;
40471;SDS011;26174;42.908;23.800;2024-02-16T00:36:36;36.88;;;17.42;;
40471;SDS011;26174;42.908;23.800;2024-02-16T00:39:01;33.63;;;15.43;;
40471;SDS011;26174;42.908;23.800;2024-02-16T00:41:28;32.60;;;14.90;;
40471;SDS011;26174;42.908;23.800;2024-02-16T00:43:54;28.42;;;14.05;;
40471;SDS011;26174;42.908;23.800;2024-02-16T00:46:22;29.73;;;14.35;;
40471;SDS011;26174;42.908;23.800;2024-02-16T00:48:49;27.20;;;14.15;;
40471;SDS011;26174;42.908;23.800;2024-02-16T00:51:15;30.55;;;15.82;;
40471;SDS011;26174;42.908;23.800;2024-02-16T00:53:40;31.05;;;15.02;;
40471;SDS011;26174;42.908;23.800;2024-02-16T00:56:06;31.33;;;14.55;;
40471;SDS011;26174;42.908;23.800;2024-02-16T00:58:32;22.88;;;12.02;;
40471;SDS011;26174;42.908;23.800;2024-02-16T01:00:58;20.17;;;11.13;;
40471;SDS011;26174;42.908;23.800;2024-02-16T01:03:24;22.35;;;11.90;;
40471;SDS011;26174;42.908;23.800;2024-02-16T01:05:51;25.65;;;11.40;;
40471;SDS011;26174;42.908;23.800;2024-02-16T01:08:18;23.45;;;11.23;;
40471;SDS011;26174;42.908;23.800;2024-02-16T01:10:44;27.85;;;11.98;;
40471;SDS011;26174;42.908;23.800;2024-02-16T01:13:09;22.20;;;11.18;;
40471;SDS011;26174;42.908;23.800;2024-02-16T01:15:35;26.35;;;12.25;;
40471;SDS011;26174;42.908;23.800;2024-02-16T01:18:02;25.08;;;12.88;;
40471;SDS011;26174;42.908;23.800;2024-02-16T01:20:30;23.20;;;12.35;;
40471;SDS011;26174;42.908;23.800;2024-02-16T01:22:57;30.23;;;13.55;;
40471;SDS011;26174;42.908;23.800;2024-02-16T01:25:22;31.30;;;13.55;;
40471;SDS011;26174;42.908;23.800;2024-02-16T01:27:48;24.15;;;12.48;;
40471;SDS011;26174;42.908;23.800;2024-02-16T01:30:14;27.27;;;12.73;;
40471;SDS011;26174;42.908;23.800;2024-02-16T01:32:40;25.33;;;11.90;;
40471;SDS011;26174;42.908;23.800;2024-02-16T01:35:06;21.75;;;11.60;;
40471;SDS011;26174;42.908;23.800;2024-02-16T01:37:32;22.13;;;11.80;;
40471;SDS011;26174;42.908;23.800;2024-02-16T01:39:57;20.75;;;11.68;;
40471;SDS011;26174;42.908;23.800;2024-02-16T01:42:24;32.95;;;13.35;;
40471;SDS011;26174;42.908;23.800;2024-02-16T01:44:49;25.45;;;12.40;;
40471;SDS011;26174;42.908;23.800;2024-02-16T01:47:16;23.50;;;12.38;;
40471;SDS011;26174;42.908;23.800;2024-02-16T01:49:41;26.27;;;11.57;;
40471;SDS011;26174;42.908;23.800;2024-02-16T01:52:07;24.90;;;11.70;;
40471;SDS011;26174;42.908;23.800;2024-02-16T01:54:34;24.08;;;12.32;;
40471;SDS011;26174;42.908;23.800;2024-02-16T01:56:59;34.95;;;14.13;;
40471;SDS011;26174;42.908;23.800;2024-02-16T01:59:26;29.55;;;13.68;;
40471;SDS011;26174;42.908;23.800;2024-02-16T02:01:52;28.48;;;13.43;;
40471;SDS011;26174;42.908;23.800;2024-02-16T02:04:17;31.35;;;13.93;;
40471;SDS011;26174;42.908;23.800;2024-02-16T02:06:45;30.45;;;14.00;;
40471;SDS011;26174;42.908;23.800;2024-02-16T02:09:10;32.45;;;14.48;;
40471;SDS011;26174;42.908;23.800;2024-02-16T02:11:36;31.80;;;15.05;;
40471;SDS011;26174;42.908;23.800;2024-02-16T02:14:02;28.88;;;13.88;;
40471;SDS011;26174;42.908;23.800;2024-02-16T02:16:28;35.25;;;16.35;;
40471;SDS011;26174;42.908;23.800;2024-02-16T02:18:54;30.75;;;14.80;;
40471;SDS011;26174;42.908;23.800;2024-02-16T02:21:19;29.13;;;14.60;;
40471;SDS011;26174;42.908;23.800;2024-02-16T02:23:45;30.77;;;15.43;;
40471;SDS011;26174;42.908;23.800;2024-02-16T02:26:13;28.77;;;14.63;;
40471;SDS011;26174;42.908;23.800;2024-02-16T02:28:39;29.48;;;15.85;;
40471;SDS011;26174;42.908;23.800;2024-02-16T02:31:05;40.08;;;16.25;;
40471;SDS011;26174;42.908;23.800;2024-02-16T02:33:30;35.95;;;16.30;;
40471;SDS011;26174;42.908;23.800;2024-02-16T02:35:56;35.75;;;17.42;;
40471;SDS011;26174;42.908;23.800;2024-02-16T02:38:22;32.63;;;16.52;;
40471;SDS011;26174;42.908;23.800;2024-02-16T02:40:47;36.05;;;17.10;;
40471;SDS011;26174;42.908;23.800;2024-02-16T02:43:13;32.65;;;17.02;;
40471;SDS011;26174;42.908;23.800;2024-02-16T02:45:39;37.05;;;17.27;;
40471;SDS011;26174;42.908;23.800;2024-02-16T02:48:04;36.47;;;17.33;;
40471;SDS011;26174;42.908;23.800;2024-02-16T02:50:30;32.08;;;17.38;;
40471;SDS011;26174;42.908;23.800;2024-02-16T02:52:57;37.58;;;18.05;;
40471;SDS011;26174;42.908;23.800;2024-02-16T02:55:22;34.65;;;16.00;;
40471;SDS011;26174;42.908;23.800;2024-02-16T02:57:48;36.90;;;17.25;;
40471;SDS011;26174;42.908;23.800;2024-02-16T03:00:13;38.10;;;16.90;;
40471;SDS011;26174;42.908;23.800;2024-02-16T03:02:40;30.83;;;16.65;;
40471;SDS011;26174;42.908;23.800;2024-02-16T03:05:06;35.55;;;17.70;;
40471;SDS011;26174;42.908;23.800;2024-02-16T03:07:33;37.70;;;18.20;;
40471;SDS011;26174;42.908;23.800;2024-02-16T03:09:59;40.55;;;20.67;;
40471;SDS011;26174;42.908;23.800;2024-02-16T03:12:24;68.20;;;37.78;;
40471;SDS011;26174;42.908;23.800;2024-02-16T03:14:50;34.97;;;17.70;;
40471;SDS011;26174;42.908;23.800;2024-02-16T03:17:17;35.63;;;18.92;;
40471;SDS011;26174;42.908;23.800;2024-02-16T03:19:42;40.17;;;19.15;;
40471;SDS011;26174;42.908;23.800;2024-02-16T03:22:08;39.03;;;17.92;;
40471;SDS011;26174;42.908;23.800;2024-02-16T03:24:33;39.67;;;19.35;;
40471;SDS011;26174;42.908;23.800;2024-02-16T03:26:59;33.63;;;17.02;;
40471;SDS011;26174;42.908;23.800;2024-02-16T03:29:25;40.80;;;18.63;;
40471;SDS011;26174;42.908;23.800;2024-02-16T03:31:51;40.75;;;19.02;;
40471;SDS011;26174;42.908;23.800;2024-02-16T03:34:17;39.17;;;17.88;;
40471;SDS011;26174;42.908;23.800;2024-02-16T03:36:43;36.08;;;17.80;;
40471;SDS011;26174;42.908;23.800;2024-02-16T03:39:12;33.05;;;17.42;;
40471;SDS011;26174;42.908;23.800;2024-02-16T03:41:37;32.80;;;16.30;;
40471;SDS011;26174;42.908;23.800;2024-02-16T03:44:03;33.15;;;17.33;;
40471;SDS011;26174;42.908;23.800;2024-02-16T03:46:29;34.50;;;16.67;;
40471;SDS011;26174;42.908;23.800;2024-02-16T03:48:55;28.13;;;15.73;;
40471;SDS011;26174;42.908;23.800;2024-02-16T03:51:21;36.22;;;17.23;;
40471;SDS011;26174;42.908;23.800;2024-02-16T03:53:46;40.17;;;18.52;;
40471;SDS011;26174;42.908;23.800;2024-02-16T03:56:17;34.63;;;17.45;;
40471;SDS011;26174;42.908;23.800;2024-02-16T03:58:44;33.92;;;16.92;;
40471;SDS011;26174;42.908;23.800;2024-02-16T04:01:09;35.72;;;17.15;;
40471;SDS011;26174;42.908;23.800;2024-02-16T04:03:35;38.90;;;16.50;;
40471;SDS011;26174;42.908;23.800;2024-02-16T04:06:00;38.80;;;16.88;;
40471;SDS011;26174;42.908;23.800;2024-02-16T04:08:28;33.47;;;16.00;;
40471;SDS011;26174;42.908;23.800;2024-02-16T04:10:53;44.30;;;18.65;;
40471;SDS011;26174;42.908;23.800;2024-02-16T04:13:19;44.00;;;18.83;;
40471;SDS011;26174;42.908;23.800;2024-02-16T04:15:45;48.42;;;20.38;;
40471;SDS011;26174;42.908;23.800;2024-02-16T04:18:10;45.75;;;19.33;;
40471;SDS011;26174;42.908;23.800;2024-02-16T04:20:36;38.10;;;18.05;;
40471;SDS011;26174;42.908;23.800;2024-02-16T04:23:03;36.00;;;16.95;;
40471;SDS011;26174;42.908;23.800;2024-02-16T04:25:28;47.47;;;21.58;;
40471;SDS011;26174;42.908;23.800;2024-02-16T04:27:54;49.30;;;22.25;;
40471;SDS011;26174;42.908;23.800;2024-02-16T04:30:20;38.67;;;19.40;;
40471;SDS011;26174;42.908;23.800;2024-02-16T04:32:46;40.70;;;17.10;;
40471;SDS011;26174;42.908;23.800;2024-02-16T04:35:11;32.25;;;16.50;;
40471;SDS011;26174;42.908;23.800;2024-02-16T04:37:38;36.83;;;17.40;;
40471;SDS011;26174;42.908;23.800;2024-02-16T04:40:05;35.15;;;17.20;;
40471;SDS011;26174;42.908;23.800;2024-02-16T04:42:31;40.83;;;19.63;;
40471;SDS011;26174;42.908;23.800;2024-02-16T04:44:57;36.60;;;18.08;;
40471;SDS011;26174;42.908;23.800;2024-02-16T04:47:24;38.05;;;17.70;;
40471;SDS011;26174;42.908;23.800;2024-02-16T04:49:50;38.03;;;17.67;;
40471;SDS011;26174;42.908;23.800;2024-02-16T04:52:16;33.42;;;17.42;;
40471;SDS011;26174;42.908;23.800;2024-02-16T04:54:41;35.53;;;17.20;;
40471;SDS011;26174;42.908;23.800;2024-02-16T04:57:07;38.13;;;17.42;;
40471;SDS011;26174;42.908;23.800;2024-02-16T04:59:33;39.33;;;19.50;;
40471;SDS011;26174;42.908;23.800;2024-02-16T05:01:58;43.70;;;17.98;;
40471;SDS011;26174;42.908;23.800;2024-02-16T05:04:25;31.67;;;15.95;;
40471;SDS011;26174;42.908;23.800;2024-02-16T05:06:51;61.83;;;22.75;;
40471;SDS011;26174;42.908;23.800;2024-02-16T05:09:17;33.40;;;17.13;;
40471;SDS011;26174;42.908;23.800;2024-02-16T05:11:44;31.42;;;17.10;;
40471;SDS011;26174;42.908;23.800;2024-02-16T05:14:10;36.50;;;16.63;;
40471;SDS011;26174;42.908;23.800;2024-02-16T05:16:43;38.90;;;17.90;;
40471;SDS011;26174;42.908;23.800;2024-02-16T05:19:09;35.67;;;18.10;;
40471;SDS011;26174;42.908;23.800;2024-02-16T05:21:36;37.25;;;17.48;;
40471;SDS011;26174;42.908;23.800;2024-02-16T05:24:02;54.42;;;19.20;;
40471;SDS011;26174;42.908;23.800;2024-02-16T05:26:28;61.63;;;25.95;;
40471;SDS011;26174;42.908;23.800;2024-02-16T05:28:53;42.17;;;19.52;;
40471;SDS011;26174;42.908;23.800;2024-02-16T05:31:19;46.25;;;21.00;;
40471;SDS011;26174;42.908;23.800;2024-02-16T05:33:46;48.33;;;22.92;;
40471;SDS011;26174;42.908;23.800;2024-02-16T05:36:16;50.88;;;21.67;;
40471;SDS011;26174;42.908;23.800;2024-02-16T05:38:45;60.05;;;21.63;;
40471;SDS011;26174;42.908;23.800;2024-02-16T05:41:11;45.58;;;19.83;;
40471;SDS011;26174;42.908;23.800;2024-02-16T05:43:37;43.50;;;20.38;;
40471;SDS011;26174;42.908;23.800;2024-02-16T05:46:05;44.78;;;21.33;;
40471;SDS011;26174;42.908;23.800;2024-02-16T05:48:32;43.35;;;20.75;;
40471;SDS011;26174;42.908;23.800;2024-02-16T05:51:02;40.95;;;19.90;;
40471;SDS011;26174;42.908;23.800;2024-02-16T05:53:30;45.10;;;19.48;;
40471;SDS011;26174;42.908;23.800;2024-02-16T05:55:56;37.80;;;17.73;;
40471;SDS011;26174;42.908;23.800;2024-02-16T05:58:21;33.67;;;17.92;;
40471;SDS011;26174;42.908;23.800;2024-02-16T06:00:48;39.25;;;19.30;;
40471;SDS011;26174;42.908;23.800;2024-02-16T06:03:14;45.03;;;19.75;;
40471;SDS011;26174;42.908;23.800;2024-02-16T06:05:39;46.25;;;19.95;;
40471;SDS011;26174;42.908;23.800;2024-02-16T06:08:14;49.20;;;19.10;;
40471;SDS011;26174;42.908;23.800;2024-02-16T06:10:44;40.20;;;18.58;;
40471;SDS011;26174;42.908;23.800;2024-02-16T06:13:15;49.10;;;18.58;;
40471;SDS011;26174;42.908;23.800;2024-02-16T06:15:41;43.95;;;19.15;;
40471;SDS011;26174;42.908;23.800;2024-02-16T06:18:08;40.63;;;20.08;;
40471;SDS011;26174;42.908;23.800;2024-02-16T06:20:34;92.35;;;35.28;;
40471;SDS011;26174;42.908;23.800;2024-02-16T06:25:29;140.00;;;49.25;;
40471;SDS011;26174;42.908;23.800;2024-02-16T06:27:54;81.18;;;35.70;;
40471;SDS011;26174;42.908;23.800;2024-02-16T06:30:20;70.45;;;33.10;;
40471;SDS011;26174;42.908;23.800;2024-02-16T06:32:45;69.93;;;32.50;;
40471;SDS011;26174;42.908;23.800;2024-02-16T06:38:02;88.57;;;39.90;;
40471;SDS011;26174;42.908;23.800;2024-02-16T06:40:28;76.63;;;33.00;;
40471;SDS011;26174;42.908;23.800;2024-02-16T06:42:54;76.47;;;32.38;;
40471;SDS011;26174;42.908;23.800;2024-02-16T06:45:20;64.18;;;29.98;;
40471;SDS011;26174;42.908;23.800;2024-02-16T06:47:46;55.00;;;28.15;;
40471;SDS011;26174;42.908;23.800;2024-02-16T06:50:12;61.83;;;26.70;;
40471;SDS011;26174;42.908;23.800;2024-02-16T06:52:37;59.55;;;24.73;;
40471;SDS011;26174;42.908;23.800;2024-02-16T06:55:03;51.88;;;24.35;;
40471;SDS011;26174;42.908;23.800;2024-02-16T06:57:29;52.22;;;25.50;;
40471;SDS011;26174;42.908;23.800;2024-02-16T06:59:56;56.97;;;26.17;;
40471;SDS011;26174;42.908;23.800;2024-02-16T07:02:22;60.13;;;25.92;;
40471;SDS011;26174;42.908;23.800;2024-02-16T07:04:48;51.70;;;23.08;;
40471;SDS011;26174;42.908;23.800;2024-02-16T07:07:14;59.92;;;24.67;;
40471;SDS011;26174;42.908;23.800;2024-02-16T07:09:39;56.30;;;23.38;;
40471;SDS011;26174;42.908;23.800;2024-02-16T07:12:05;57.65;;;25.40;;
40471;SDS011;26174;42.908;23.800;2024-02-16T07:14:32;51.00;;;24.75;;
40471;SDS011;26174;42.908;23.800;2024-02-16T07:19:59;65.88;;;25.65;;
40471;SDS011;26174;42.908;23.800;2024-02-16T07:22:29;60.58;;;26.42;;
40471;SDS011;26174;42.908;23.800;2024-02-16T07:24:55;57.67;;;26.92;;
40471;SDS011;26174;42.908;23.800;2024-02-16T07:27:21;60.75;;;28.00;;
40471;SDS011;26174;42.908;23.800;2024-02-16T07:29:58;59.83;;;26.85;;
40471;SDS011;26174;42.908;23.800;2024-02-16T07:32:40;75.25;;;30.45;;
40471;SDS011;26174;42.908;23.800;2024-02-16T07:35:06;66.78;;;30.58;;
40471;SDS011;26174;42.908;23.800;2024-02-16T07:37:32;68.78;;;31.27;;
40471;SDS011;26174;42.908;23.800;2024-02-16T07:39:57;70.20;;;31.48;;
40471;SDS011;26174;42.908;23.800;2024-02-16T07:42:26;73.72;;;30.17;;
40471;SDS011;26174;42.908;23.800;2024-02-16T07:44:53;58.42;;;26.63;;
40471;SDS011;26174;42.908;23.800;2024-02-16T07:47:18;48.90;;;24.30;;
40471;SDS011;26174;42.908;23.800;2024-02-16T07:49:44;50.17;;;24.63;;
40471;SDS011;26174;42.908;23.800;2024-02-16T07:52:09;57.28;;;26.90;;
40471;SDS011;26174;42.908;23.800;2024-02-16T07:54:35;67.20;;;28.75;;
40471;SDS011;26174;42.908;23.800;2024-02-16T07:57:01;48.78;;;24.75;;
40471;SDS011;26174;42.908;23.800;2024-02-16T07:59:26;48.05;;;20.70;;
40471;SDS011;26174;42.908;23.800;2024-02-16T08:01:52;35.10;;;18.50;;
40471;SDS011;26174;42.908;23.800;2024-02-16T08:04:18;38.65;;;20.45;;
40471;SDS011;26174;42.908;23.800;2024-02-16T08:06:43;50.22;;;22.95;;
40471;SDS011;26174;42.908;23.800;2024-02-16T08:09:09;41.75;;;21.88;;
40471;SDS011;26174;42.908;23.800;2024-02-16T08:11:35;45.72;;;20.58;;
40471;SDS011;26174;42.908;23.800;2024-02-16T08:14:01;32.28;;;16.85;;
40471;SDS011;26174;42.908;23.800;2024-02-16T08:16:27;37.55;;;16.17;;
40471;SDS011;26174;42.908;23.800;2024-02-16T08:18:53;25.00;;;13.63;;
40471;SDS011;26174;42.908;23.800;2024-02-16T08:21:18;22.48;;;13.02;;
40471;SDS011;26174;42.908;23.800;2024-02-16T08:23:44;23.60;;;12.57;;
40471;SDS011;26174;42.908;23.800;2024-02-16T08:26:10;27.58;;;15.23;;
40471;SDS011;26174;42.908;23.800;2024-02-16T08:28:35;26.83;;;14.65;;
40471;SDS011;26174;42.908;23.800;2024-02-16T08:31:01;18.30;;;10.98;;
40471;SDS011;26174;42.908;23.800;2024-02-16T08:33:26;27.45;;;13.80;;
40471;SDS011;26174;42.908;23.800;2024-02-16T08:35:52;26.67;;;13.55;;
40471;SDS011;26174;42.908;23.800;2024-02-16T08:38:18;32.53;;;15.07;;
40471;SDS011;26174;42.908;23.800;2024-02-16T08:40:43;30.42;;;15.73;;
40471;SDS011;26174;42.908;23.800;2024-02-16T08:43:09;30.30;;;15.45;;
40471;SDS011;26174;42.908;23.800;2024-02-16T08:45:35;28.45;;;14.95;;
40471;SDS011;26174;42.908;23.800;2024-02-16T08:48:00;31.60;;;15.15;;
40471;SDS011;26174;42.908;23.800;2024-02-16T08:50:28;33.60;;;16.65;;
40471;SDS011;26174;42.908;23.800;2024-02-16T08:52:54;30.15;;;16.85;;
40471;SDS011;26174;42.908;23.800;2024-02-16T08:55:20;30.10;;;15.65;;
40471;SDS011;26174;42.908;23.800;2024-02-16T08:57:46;32.28;;;16.38;;
40471;SDS011;26174;42.908;23.800;2024-02-16T09:00:11;17.85;;;10.27;;
40471;SDS011;26174;42.908;23.800;2024-02-16T09:02:38;18.88;;;11.18;;
40471;SDS011;26174;42.908;23.800;2024-02-16T09:05:04;17.10;;;11.30;;
40471;SDS011;26174;42.908;23.800;2024-02-16T09:07:30;21.60;;;12.02;;
40471;SDS011;26174;42.908;23.800;2024-02-16T09:09:55;22.08;;;12.48;;
40471;SDS011;26174;42.908;23.800;2024-02-16T09:12:22;22.48;;;10.48;;
40471;SDS011;26174;42.908;23.800;2024-02-16T09:14:48;13.80;;;8.73;;
40471;SDS011;26174;42.908;23.800;2024-02-16T09:17:13;12.85;;;7.35;;
40471;SDS011;26174;42.908;23.800;2024-02-16T09:19:39;13.38;;;6.85;;
40471;SDS011;26174;42.908;23.800;2024-02-16T09:22:05;9.93;;;6.20;;
40471;SDS011;26174;42.908;23.800;2024-02-16T09:24:31;9.27;;;5.75;;
40471;SDS011;26174;42.908;23.800;2024-02-16T09:26:57;14.85;;;6.28;;
40471;SDS011;26174;42.908;23.800;2024-02-16T09:29:26;10.75;;;6.50;;
40471;SDS011;26174;42.908;23.800;2024-02-16T09:31:53;11.88;;;5.95;;
40471;SDS011;26174;42.908;23.800;2024-02-16T09:34:19;10.63;;;6.43;;
40471;SDS011;26174;42.908;23.800;2024-02-16T09:36:45;13.02;;;7.20;;
40471;SDS011;26174;42.908;23.800;2024-02-16T09:39:10;14.10;;;7.57;;
40471;SDS011;26174;42.908;23.800;2024-02-16T09:41:36;14.65;;;6.63;;
40471;SDS011;26174;42.908;23.800;2024-02-16T09:44:02;14.45;;;7.55;;
40471;SDS011;26174;42.908;23.800;2024-02-16T09:46:29;16.38;;;6.93;;
40471;SDS011;26174;42.908;23.800;2024-02-16T09:48:55;15.68;;;6.85;;
40471;SDS011;26174;42.908;23.800;2024-02-16T09:51:22;14.00;;;6.97;;
40471;SDS011;26174;42.908;23.800;2024-02-16T09:53:50;14.13;;;6.50;;
40471;SDS011;26174;42.908;23.800;2024-02-16T09:56:20;13.70;;;5.85;;
40471;SDS011;26174;42.908;23.800;2024-02-16T09:58:46;12.52;;;6.15;;
40471;SDS011;26174;42.908;23.800;2024-02-16T10:01:19;13.00;;;6.72;;
40471;SDS011;26174;42.908;23.800;2024-02-16T10:03:45;13.45;;;6.90;;
40471;SDS011;26174;42.908;23.800;2024-02-16T10:06:11;13.50;;;7.20;;
40471;SDS011;26174;42.908;23.800;2024-02-16T10:08:50;16.83;;;7.38;;
40471;SDS011;26174;42.908;23.800;2024-02-16T10:11:18;13.27;;;7.50;;
40471;SDS011;26174;42.908;23.800;2024-02-16T10:13:54;12.13;;;6.88;;
40471;SDS011;26174;42.908;23.800;2024-02-16T10:16:21;13.02;;;7.32;;
40471;SDS011;26174;42.908;23.800;2024-02-16T10:18:47;12.07;;;7.05;;
40471;SDS011;26174;42.908;23.800;2024-02-16T10:21:13;19.00;;;11.50;;
40471;SDS011;26174;42.908;23.800;2024-02-16T10:23:38;11.48;;;6.07;;
40471;SDS011;26174;42.908;23.800;2024-02-16T10:26:04;16.30;;;7.53;;
40471;SDS011;26174;42.908;23.800;2024-02-16T10:28:30;14.02;;;7.18;;
40471;SDS011;26174;42.908;23.800;2024-02-16T10:30:59;14.02;;;7.38;;
40471;SDS011;26174;42.908;23.800;2024-02-16T10:33:31;14.13;;;6.93;;
40471;SDS011;26174;42.908;23.800;2024-02-16T10:35:57;31.98;;;9.30;;
40471;SDS011;26174;42.908;23.800;2024-02-16T10:38:24;12.43;;;6.38;;
40471;SDS011;26174;42.908;23.800;2024-02-16T10:40:52;12.07;;;6.50;;
40471;SDS011;26174;42.908;23.800;2024-02-16T10:43:18;11.43;;;6.38;;
40471;SDS011;26174;42.908;23.800;2024-02-16T10:45:55;12.75;;;5.80;;
40471;SDS011;26174;42.908;23.800;2024-02-16T10:48:22;9.13;;;5.53;;
40471;SDS011;26174;42.908;23.800;2024-02-16T10:50:47;11.90;;;5.70;;
40471;SDS011;26174;42.908;23.800;2024-02-16T10:53:25;5.90;;;4.25;;
40471;SDS011;26174;42.908;23.800;2024-02-16T10:55:52;13.32;;;5.07;;
40471;SDS011;26174;42.908;23.800;2024-02-16T10:58:18;9.80;;;5.53;;
40471;SDS011;26174;42.908;23.800;2024-02-16T11:00:48;14.32;;;5.72;;
40471;SDS011;26174;42.908;23.800;2024-02-16T11:03:24;9.98;;;5.53;;
40471;SDS011;26174;42.908;23.800;2024-02-16T11:05:51;23.10;;;12.27;;
40471;SDS011;26174;42.908;23.800;2024-02-16T11:08:18;8.40;;;5.45;;
40471;SDS011;26174;42.908;23.800;2024-02-16T11:10:55;9.60;;;5.07;;
40471;SDS011;26174;42.908;23.800;2024-02-16T11:13:28;11.60;;;7.05;;
40471;SDS011;26174;42.908;23.800;2024-02-16T11:18:28;9.70;;;5.78;;
40471;SDS011;26174;42.908;23.800;2024-02-16T11:20:54;8.07;;;4.40;;
40471;SDS011;26174;42.908;23.800;2024-02-16T11:23:24;9.50;;;4.65;;
40471;SDS011;26174;42.908;23.800;2024-02-16T11:26:03;21.63;;;4.80;;
40471;SDS011;26174;42.908;23.800;2024-02-16T11:28:31;8.40;;;4.32;;
40471;SDS011;26174;42.908;23.800;2024-02-16T11:30:58;9.73;;;6.53;;
40471;SDS011;26174;42.908;23.800;2024-02-16T11:33:25;5.80;;;3.50;;
40471;SDS011;26174;42.908;23.800;2024-02-16T11:36:02;8.82;;;5.80;;
40471;SDS011;26174;42.908;23.800;2024-02-16T11:38:35;6.80;;;4.30;;
40471;SDS011;26174;42.908;23.800;2024-02-16T11:41:04;6.43;;;4.53;;
40471;SDS011;26174;42.908;23.800;2024-02-16T11:43:31;6.28;;;4.53;;
40471;SDS011;26174;42.908;23.800;2024-02-16T11:46:10;5.38;;;3.60;;
40471;SDS011;26174;42.908;23.800;2024-02-16T11:48:37;5.55;;;3.90;;
40471;SDS011;26174;42.908;23.800;2024-02-16T11:51:03;6.25;;;3.47;;
40471;SDS011;26174;42.908;23.800;2024-02-16T11:53:29;7.28;;;3.40;;
40471;SDS011;26174;42.908;23.800;2024-02-16T11:55:55;5.47;;;2.83;;
40471;SDS011;26174;42.908;23.800;2024-02-16T11:58:21;5.97;;;3.10;;
40471;SDS011;26174;42.908;23.800;2024-02-16T12:00:47;7.25;;;3.80;;
40471;SDS011;26174;42.908;23.800;2024-02-16T12:05:55;6.25;;;3.00;;
40471;SDS011;26174;42.908;23.800;2024-02-16T12:08:22;4.57;;;2.70;;
40471;SDS011;26174;42.908;23.800;2024-02-16T12:10:48;4.70;;;2.70;;
40471;SDS011;26174;42.908;23.800;2024-02-16T12:13:18;3.65;;;2.75;;
40471;SDS011;26174;42.908;23.800;2024-02-16T12:15:45;5.47;;;3.30;;
40471;SDS011;26174;42.908;23.800;2024-02-16T12:18:25;8.40;;;6.15;;
40471;SDS011;26174;42.908;23.800;2024-02-16T12:21:02;12.05;;;7.25;;
40471;SDS011;26174;42.908;23.800;2024-02-16T12:23:29;3.88;;;2.20;;
40471;SDS011;26174;42.908;23.800;2024-02-16T12:25:58;3.85;;;2.97;;
40471;SDS011;26174;42.908;23.800;2024-02-16T12:28:24;3.78;;;2.88;;
40471;SDS011;26174;42.908;23.800;2024-02-16T12:30:51;4.10;;;2.60;;
40471;SDS011;26174;42.908;23.800;2024-02-16T12:33:17;20.88;;;8.07;;
40471;SDS011;26174;42.908;23.800;2024-02-16T12:35:42;114.03;;;32.15;;
40471;SDS011;26174;42.908;23.800;2024-02-16T12:38:09;12.75;;;5.53;;
40471;SDS011;26174;42.908;23.800;2024-02-16T12:40:36;4.97;;;3.47;;
40471;SDS011;26174;42.908;23.800;2024-02-16T12:43:02;4.90;;;3.40;;
40471;SDS011;26174;42.908;23.800;2024-02-16T12:45:27;6.05;;;3.53;;
40471;SDS011;26174;42.908;23.800;2024-02-16T12:47:53;14.50;;;6.53;;
40471;SDS011;26174;42.908;23.800;2024-02-16T12:50:18;9.25;;;7.32;;
40471;SDS011;26174;42.908;23.800;2024-02-16T12:52:44;16.00;;;10.05;;
40471;SDS011;26174;42.908;23.800;2024-02-16T12:55:11;10.93;;;4.38;;
40471;SDS011;26174;42.908;23.800;2024-02-16T12:57:36;5.15;;;3.95;;
40471;SDS011;26174;42.908;23.800;2024-02-16T13:00:03;5.45;;;3.47;;
40471;SDS011;26174;42.908;23.800;2024-02-16T13:02:30;6.93;;;3.92;;
40471;SDS011;26174;42.908;23.800;2024-02-16T13:04:56;6.00;;;3.22;;
40471;SDS011;26174;42.908;23.800;2024-02-16T13:07:21;3.28;;;2.97;;
40471;SDS011;26174;42.908;23.800;2024-02-16T13:09:48;5.70;;;3.95;;
40471;SDS011;26174;42.908;23.800;2024-02-16T13:12:15;9.18;;;5.03;;
40471;SDS011;26174;42.908;23.800;2024-02-16T13:14:41;4.22;;;3.13;;
40471;SDS011;26174;42.908;23.800;2024-02-16T13:17:07;5.68;;;3.70;;
40471;SDS011;26174;42.908;23.800;2024-02-16T13:19:32;4.47;;;3.35;;
40471;SDS011;26174;42.908;23.800;2024-02-16T13:21:58;4.38;;;2.55;;
40471;SDS011;26174;42.908;23.800;2024-02-16T13:24:24;7.80;;;2.92;;
40471;SDS011;26174;42.908;23.800;2024-02-16T13:26:49;4.40;;;2.80;;
40471;SDS011;26174;42.908;23.800;2024-02-16T13:29:15;10.90;;;3.30;;
40471;SDS011;26174;42.908;23.800;2024-02-16T13:31:41;4.88;;;3.50;;
40471;SDS011;26174;42.908;23.800;2024-02-16T13:34:07;6.10;;;3.10;;
40471;SDS011;26174;42.908;23.800;2024-02-16T13:36:33;9.10;;;3.58;;
40471;SDS011;26174;42.908;23.800;2024-02-16T13:38:59;3.88;;;2.40;;
40471;SDS011;26174;42.908;23.800;2024-02-16T13:41:25;3.65;;;2.42;;
40471;SDS011;26174;42.908;23.800;2024-02-16T13:43:50;5.68;;;2.50;;
40471;SDS011;26174;42.908;23.800;2024-02-16T13:46:16;3.53;;;2.50;;
40471;SDS011;26174;42.908;23.800;2024-02-16T13:48:42;6.88;;;2.53;;
40471;SDS011;26174;42.908;23.800;2024-02-16T13:51:08;6.15;;;2.75;;
40471;SDS011;26174;42.908;23.800;2024-02-16T13:53:35;3.72;;;2.78;;
40471;SDS011;26174;42.908;23.800;2024-02-16T13:56:01;4.05;;;2.90;;
40471;SDS011;26174;42.908;23.800;2024-02-16T13:58:29;3.70;;;3.03;;
40471;SDS011;26174;42.908;23.800;2024-02-16T14:00:55;5.20;;;3.22;;
40471;SDS011;26174;42.908;23.800;2024-02-16T14:03:22;4.65;;;3.05;;
40471;SDS011;26174;42.908;23.800;2024-02-16T14:05:48;5.30;;;2.90;;
40471;SDS011;26174;42.908;23.800;2024-02-16T14:08:13;5.70;;;3.10;;
40471;SDS011;26174;42.908;23.800;2024-02-16T14:10:40;7.82;;;3.00;;
40471;SDS011;26174;42.908;23.800;2024-02-16T14:13:05;5.10;;;2.78;;
40471;SDS011;26174;42.908;23.800;2024-02-16T14:15:31;6.13;;;3.05;;
40471;SDS011;26174;42.908;23.800;2024-02-16T14:17:57;9.98;;;4.70;;
40471;SDS011;26174;42.908;23.800;2024-02-16T14:20:25;4.28;;;3.05;;
40471;SDS011;26174;42.908;23.800;2024-02-16T14:22:51;4.05;;;2.80;;
40471;SDS011;26174;42.908;23.800;2024-02-16T14:28:05;6.30;;;3.28;;